createdAt,value
2022-11-17T00:01:26.888Z,298.45
2022-11-17T00:04:14.829Z,286.63
2022-11-17T00:07:02.831Z,300.23
2022-11-17T00:09:52.208Z,303.98
2022-11-17T00:12:57.973Z,298.73
2022-11-17T00:15:45.946Z,265.40
2022-11-17T00:18:51.309Z,284.10
2022-11-17T00:21:39.258Z,272.65
2022-11-17T00:24:27.179Z,277.42
2022-11-17T00:27:17.413Z,279.80
2022-11-17T00:30:06.379Z,273.70
2022-11-17T00:33:11.762Z,253.10
2022-11-17T00:36:00.028Z,267.88
2022-11-17T00:38:47.965Z,272.60
2022-11-17T00:41:35.897Z,268.95
2022-11-17T00:44:25.137Z,268.63
2022-11-17T00:47:13.151Z,280.92
2022-11-17T00:50:01.031Z,286.65
2022-11-17T00:52:48.928Z,288.05
2022-11-17T00:55:36.840Z,277.70
2022-11-17T00:58:24.785Z,270.90
2022-11-17T01:01:14.484Z,289.13
2022-11-17T01:04:06.216Z,279.30
2022-11-17T01:06:54.199Z,309.25
2022-11-17T01:09:42.143Z,299.40
2022-11-17T01:12:30.063Z,304.63
2022-11-17T01:15:18.112Z,299.70
2022-11-17T01:18:07.388Z,297.95
2022-11-17T01:20:55.296Z,291.20
2022-11-17T01:23:44.494Z,296.70
2022-11-17T01:26:35.064Z,289.55
2022-11-17T01:29:23.142Z,284.73
2022-11-17T01:32:11.042Z,292.65
2022-11-17T01:35:00.295Z,291.95
2022-11-17T01:37:48.171Z,274.20
2022-11-17T01:40:36.067Z,271.50
2022-11-17T01:43:37.841Z,289.90
2022-11-17T01:46:31.502Z,271.25
2022-11-17T01:49:24.830Z,248.35
2022-11-17T01:52:14.934Z,244.52
2022-11-17T01:55:04.175Z,251.10
2022-11-17T01:57:55.216Z,268.33
2022-11-17T02:00:43.166Z,258.58
2022-11-17T02:03:34.497Z,270.73
2022-11-17T02:06:29.874Z,260.70
2022-11-17T02:09:19.828Z,265.35
2022-11-17T02:12:10.193Z,248.30
2022-11-17T02:14:58.152Z,254.07
2022-11-17T02:17:46.078Z,266.63
2022-11-17T02:20:44.318Z,280.13
2022-11-17T02:23:54.041Z,266.27
2022-11-17T02:27:20.085Z,269.35
2022-11-17T02:30:11.765Z,265.65
2022-11-17T02:33:04.458Z,292.33
2022-11-17T02:35:58.094Z,281.58
2022-11-17T02:38:55.332Z,295.23
2022-11-17T02:41:50.381Z,283.20
2022-11-17T02:44:44.375Z,293.63
2022-11-17T02:47:36.927Z,300.35
2022-11-17T02:50:28.727Z,299.45
2022-11-17T02:53:17.452Z,311.45
2022-11-17T02:56:06.053Z,293.45
2022-11-17T02:58:58.847Z,305.33
2022-11-17T03:02:20.450Z,291.67
2022-11-17T03:05:17.451Z,296.92
2022-11-17T03:08:18.307Z,318.42
2022-11-17T03:11:09.050Z,265.80
2022-11-17T03:14:07.249Z,289.83
2022-11-17T03:17:02.143Z,305.70
2022-11-17T03:19:58.645Z,300.70
2022-11-17T03:22:53.835Z,283.40
2022-11-17T03:25:46.557Z,288.77
2022-11-17T03:28:34.972Z,296.73
2022-11-17T03:31:29.545Z,296.80
2022-11-17T03:34:22.978Z,305.73
2022-11-17T03:37:14.832Z,313.23
2022-11-17T03:40:08.562Z,298.23
2022-11-17T03:43:00.850Z,325.58
2022-11-17T03:45:50.927Z,333.40
2022-11-17T03:48:43.846Z,337.17
2022-11-17T03:51:33.680Z,366.75
2022-11-17T03:54:21.820Z,359.42
2022-11-17T04:00:08.102Z,344.50
2022-11-17T04:03:01.892Z,357.15
2022-11-17T04:05:49.813Z,333.27
2022-11-17T04:08:37.666Z,350.30
2022-11-17T04:11:42.936Z,346.38
2022-11-17T04:14:49.544Z,343.30
2022-11-17T04:17:37.580Z,330.63
2022-11-17T04:20:25.506Z,336.95
2022-11-17T04:23:15.011Z,349.00
2022-11-17T04:26:20.823Z,331.25
2022-11-17T04:29:09.007Z,332.65
2022-11-17T04:31:58.187Z,321.20
2022-11-17T04:34:46.080Z,313.77
2022-11-17T04:37:34.154Z,313.08
2022-11-17T04:40:22.025Z,311.52
2022-11-17T04:43:08.936Z,305.50
2022-11-17T04:45:59.589Z,294.02
2022-11-17T04:48:49.359Z,275.17
2022-11-17T04:51:37.555Z,267.85
2022-11-17T04:54:25.895Z,239.48
2022-11-17T04:57:13.781Z,260.33
2022-11-17T05:00:01.768Z,257.52
2022-11-17T05:02:49.643Z,257.23
2022-11-17T05:05:38.871Z,264.83
2022-11-17T05:08:26.743Z,273.05
2022-11-17T05:11:33.859Z,260.77
2022-11-17T05:14:24.067Z,256.42
2022-11-17T05:17:11.968Z,238.55
2022-11-17T05:20:01.165Z,258.35
2022-11-17T05:23:08.360Z,262.73
2022-11-17T05:25:56.277Z,247.30
2022-11-17T05:28:44.766Z,255.57
2022-11-17T05:31:32.936Z,253.45
2022-11-17T05:34:20.827Z,259.95
2022-11-17T05:37:08.769Z,271.50
2022-11-17T05:39:58.045Z,256.95
2022-11-17T05:42:45.910Z,276.23
2022-11-17T05:45:33.800Z,254.55
2022-11-17T05:48:21.955Z,246.05
2022-11-17T05:51:10.714Z,258.02
2022-11-17T05:53:58.715Z,249.43
2022-11-17T05:56:50.956Z,271.65
2022-11-17T05:59:43.599Z,266.17
2022-11-17T06:02:36.578Z,291.00
2022-11-17T06:05:25.776Z,278.02
2022-11-17T06:08:13.734Z,267.40
2022-11-17T06:11:01.666Z,272.10
2022-11-17T06:13:50.869Z,262.73
2022-11-17T06:16:44.829Z,274.75
2022-11-17T06:19:41.346Z,264.10
2022-11-17T06:22:30.753Z,276.67
2022-11-17T06:25:20.679Z,264.35
2022-11-17T06:28:11.860Z,258.73
2022-11-17T06:31:01.692Z,257.45
2022-11-17T06:33:49.778Z,290.30
2022-11-17T06:36:37.854Z,292.38
2022-11-17T06:39:25.768Z,278.90
2022-11-17T06:42:13.650Z,266.38
2022-11-17T06:45:01.543Z,292.63
2022-11-17T06:47:53.413Z,266.48
2022-11-17T06:50:41.602Z,278.23
2022-11-17T06:53:29.529Z,285.30
2022-11-17T06:56:18.166Z,286.63
2022-11-17T06:59:06.298Z,298.10
2022-11-17T07:01:54.357Z,295.90
2022-11-17T07:04:23.281Z,289.65
2022-11-17T07:06:51.358Z,285.70
2022-11-17T07:09:19.008Z,294.35
2022-11-17T07:11:46.568Z,309.08
2022-11-17T07:14:14.253Z,294.52
2022-11-17T07:16:42.630Z,280.00
2022-11-17T07:19:10.734Z,303.60
2022-11-17T07:21:39.796Z,301.80
2022-11-17T07:24:08.625Z,318.30
2022-11-17T07:26:36.466Z,281.38
2022-11-17T07:29:04.482Z,296.88
2022-11-17T07:31:32.106Z,303.77
2022-11-17T07:33:59.827Z,306.00
2022-11-17T07:36:27.568Z,325.67
2022-11-17T07:38:56.531Z,319.55
2022-11-17T07:41:24.211Z,316.98
2022-11-17T07:43:51.840Z,308.52
2022-11-17T07:46:19.503Z,316.27
2022-11-17T07:48:47.112Z,315.13
2022-11-17T07:51:15.803Z,303.77
2022-11-17T07:53:43.484Z,314.83
2022-11-17T07:56:13.105Z,314.88
2022-11-17T07:58:41.674Z,328.50
2022-11-17T08:01:10.678Z,330.67
2022-11-17T08:03:38.382Z,335.70
2022-11-17T08:06:07.744Z,323.50
2022-11-17T08:08:35.781Z,328.23
2022-11-17T08:11:05.056Z,326.95
2022-11-17T08:13:34.491Z,332.67
2022-11-17T08:16:02.218Z,339.95
2022-11-17T08:18:30.867Z,323.10
2022-11-17T08:21:06.042Z,327.60
2022-11-17T08:23:34.445Z,294.15
2022-11-17T08:26:03.442Z,306.90
2022-11-17T08:28:31.125Z,322.20
2022-11-17T08:31:01.329Z,309.08
2022-11-17T08:33:29.164Z,292.63
2022-11-17T08:35:57.973Z,297.42
2022-11-17T08:38:28.825Z,293.98
2022-11-17T08:40:56.633Z,301.83
2022-11-17T08:43:24.613Z,302.55
2022-11-17T08:45:52.481Z,293.75
2022-11-17T08:48:21.672Z,287.70
2022-11-17T08:50:49.597Z,297.40
2022-11-17T08:53:19.097Z,304.50
2022-11-17T08:55:47.106Z,282.80
2022-11-17T08:58:14.906Z,262.95
2022-11-17T09:00:45.224Z,282.33
2022-11-17T09:03:13.057Z,290.33
2022-11-17T09:05:44.358Z,272.23
2022-11-17T09:08:43.782Z,266.08
2022-11-17T09:11:05.183Z,274.70
2022-11-17T09:13:33.737Z,265.63
2022-11-17T09:16:02.332Z,274.85
2022-11-17T09:18:29.956Z,260.10
2022-11-17T09:21:02.033Z,273.08
2022-11-17T09:23:31.545Z,279.40
2022-11-17T09:25:59.502Z,266.05
2022-11-17T09:28:27.178Z,276.98
2022-11-17T09:30:55.027Z,284.40
2022-11-17T09:33:22.715Z,259.75
2022-11-17T09:35:50.734Z,258.42
2022-11-17T09:38:19.824Z,272.23
2022-11-17T09:40:47.687Z,273.33
2022-11-17T09:43:26.625Z,280.63
2022-11-17T09:46:00.780Z,266.65
2022-11-17T09:48:41.774Z,280.52
2022-11-17T09:51:14.794Z,269.33
2022-11-17T09:53:50.557Z,285.05
2022-11-17T09:56:18.296Z,262.92
2022-11-17T09:58:51.956Z,275.55
2022-11-17T10:01:21.375Z,276.30
2022-11-17T10:03:51.364Z,281.13
2022-11-17T10:06:22.160Z,283.00
2022-11-17T10:08:59.092Z,271.95
2022-11-17T10:11:32.970Z,267.23
2022-11-17T10:14:04.946Z,287.25
2022-11-17T10:16:32.812Z,288.98
2022-11-17T10:19:10.998Z,278.98
2022-11-17T10:21:39.034Z,293.38
2022-11-17T10:24:08.911Z,290.92
2022-11-17T10:26:46.716Z,285.77
2022-11-17T10:29:15.841Z,296.60
2022-11-17T10:31:45.403Z,298.02
2022-11-17T10:34:37.033Z,290.88
2022-11-17T10:37:25.661Z,280.02
2022-11-17T10:40:09.818Z,288.02
2022-11-17T10:42:37.477Z,300.88
2022-11-17T10:45:07.114Z,316.90
2022-11-17T10:47:39.748Z,275.90
2022-11-17T10:50:22.538Z,300.88
2022-11-17T10:52:55.558Z,291.58
2022-11-17T10:55:31.425Z,292.55
2022-11-17T10:58:05.926Z,293.17
2022-11-17T11:00:35.042Z,301.92
2022-11-17T11:03:18.390Z,281.42
2022-11-17T11:06:05.568Z,266.52
2022-11-17T11:08:48.143Z,286.83
2022-11-17T11:11:36.228Z,282.65
2022-11-17T11:14:13.609Z,279.65
2022-11-17T11:16:47.657Z,278.95
2022-11-17T11:19:18.058Z,291.70
2022-11-17T11:22:02.624Z,293.88
2022-11-17T11:24:39.841Z,297.00
2022-11-17T11:27:24.592Z,293.58
2022-11-17T11:30:02.010Z,293.98
2022-11-17T11:32:41.853Z,287.45
2022-11-17T11:35:41.878Z,289.40
2022-11-17T11:38:19.457Z,259.88
2022-11-17T11:40:59.994Z,271.80
2022-11-17T11:43:38.882Z,301.90
2022-11-17T11:46:14.711Z,293.95
2022-11-17T11:48:42.612Z,270.60
2022-11-17T11:51:15.749Z,294.23
2022-11-17T11:53:51.534Z,309.58
2022-11-17T11:56:23.544Z,301.00
2022-11-17T11:58:58.125Z,291.20
2022-11-17T12:01:27.295Z,275.13
2022-11-17T12:04:07.176Z,317.80
2022-11-17T12:06:43.026Z,313.67
2022-11-17T12:09:37.530Z,302.00
2022-11-17T12:12:09.382Z,299.75
2022-11-17T12:14:39.458Z,308.83
2022-11-17T12:17:23.314Z,294.00
2022-11-17T12:19:55.244Z,298.42
2022-11-17T12:22:51.098Z,292.88
2022-11-17T12:25:20.789Z,296.50
2022-11-17T12:27:50.915Z,303.70
2022-11-17T12:30:55.240Z,297.02
2022-11-17T12:33:23.729Z,293.50
2022-11-17T12:36:30.468Z,310.33
2022-11-17T12:38:59.527Z,284.08
2022-11-17T12:42:04.670Z,272.60
2022-11-17T12:45:00.697Z,286.73
2022-11-17T12:47:31.700Z,294.23
2022-11-17T12:50:27.134Z,306.42
2022-11-17T12:53:13.675Z,300.45
2022-11-17T12:55:59.774Z,276.02
2022-11-17T12:58:36.250Z,266.00
2022-11-17T13:01:12.276Z,279.10
2022-11-17T13:03:46.017Z,283.83
2022-11-17T13:09:07.066Z,273.23
2022-11-17T13:11:35.561Z,293.90
2022-11-17T13:14:11.981Z,309.88
2022-11-17T13:16:46.899Z,292.50
2022-11-17T13:19:34.965Z,301.60
2022-11-17T13:22:06.455Z,293.50
2022-11-17T13:24:35.847Z,307.30
2022-11-17T13:27:07.957Z,298.67
2022-11-17T13:29:35.870Z,290.73
2022-11-17T13:32:17.474Z,303.20
2022-11-17T13:34:57.272Z,283.42
2022-11-17T13:37:26.926Z,282.55
2022-11-17T13:39:59.374Z,290.13
2022-11-17T13:42:30.765Z,289.17
2022-11-17T13:45:02.504Z,287.67
2022-11-17T13:47:45.315Z,283.75
2022-11-17T13:50:33.137Z,291.33
2022-11-17T13:53:02.359Z,272.75
2022-11-17T13:55:31.030Z,277.38
2022-11-17T13:58:01.786Z,279.83
2022-11-17T14:00:31.352Z,289.02
2022-11-17T14:03:00.051Z,286.40
2022-11-17T14:05:30.308Z,300.20
2022-11-17T14:07:59.866Z,283.15
2022-11-17T14:10:34.224Z,282.48
2022-11-17T14:13:20.218Z,283.83
2022-11-17T14:15:54.220Z,274.70
2022-11-17T14:18:28.650Z,286.17
2022-11-17T14:21:16.475Z,287.73
2022-11-17T14:23:45.602Z,280.58
2022-11-17T14:26:23.325Z,262.98
2022-11-17T14:28:53.096Z,250.15
2022-11-17T14:31:22.003Z,254.15
2022-11-17T14:33:50.655Z,261.42
2022-11-17T14:36:19.899Z,272.70
2022-11-17T14:38:48.633Z,286.77
2022-11-17T14:41:17.313Z,274.20
2022-11-17T14:43:45.375Z,272.58
2022-11-17T14:46:19.614Z,260.30
2022-11-17T14:48:47.320Z,270.97
2022-11-17T14:51:16.145Z,255.50
2022-11-17T14:53:45.930Z,261.23
2022-11-17T14:56:15.674Z,259.73
2022-11-17T14:58:43.300Z,263.27
2022-11-17T15:01:12.022Z,251.17
2022-11-17T15:03:39.808Z,257.93
2022-11-17T15:06:09.437Z,266.15
2022-11-17T15:08:37.562Z,261.33
2022-11-17T15:11:07.158Z,273.05
2022-11-17T15:13:34.811Z,287.10
2022-11-17T15:16:04.018Z,259.48
2022-11-17T15:18:32.143Z,264.30
2022-11-17T15:21:03.920Z,277.47
2022-11-17T15:23:31.994Z,261.83
2022-11-17T15:26:00.366Z,245.83
2022-11-17T15:28:30.509Z,266.40
2022-11-17T15:30:58.355Z,256.87
2022-11-17T15:33:26.109Z,264.83
2022-11-17T15:36:01.879Z,259.20
2022-11-17T15:38:29.509Z,249.60
2022-11-17T15:40:57.128Z,273.20
2022-11-17T15:43:29.289Z,261.20
2022-11-17T15:46:04.783Z,266.35
2022-11-17T15:48:32.989Z,256.23
2022-11-17T15:51:02.979Z,264.70
2022-11-17T15:53:32.032Z,257.10
2022-11-17T15:56:07.432Z,237.43
2022-11-17T15:58:37.159Z,266.27
2022-11-17T16:01:09.964Z,269.58
2022-11-17T16:03:38.129Z,263.73
2022-11-17T16:06:06.381Z,288.00
2022-11-17T16:08:34.422Z,259.42
2022-11-17T16:11:02.560Z,264.95
2022-11-17T16:13:30.309Z,284.40
2022-11-17T16:15:59.479Z,278.35
2022-11-17T16:18:27.161Z,263.73
2022-11-17T16:20:55.567Z,268.70
2022-11-17T16:23:24.539Z,269.23
2022-11-17T16:25:52.188Z,276.92
2022-11-17T16:28:20.037Z,277.83
2022-11-17T16:30:47.796Z,264.85
2022-11-17T16:33:17.011Z,257.63
2022-11-17T16:35:45.520Z,259.10
2022-11-17T16:38:15.142Z,265.35
2022-11-17T16:40:43.215Z,262.70
2022-11-17T16:43:11.784Z,252.03
2022-11-17T16:45:44.431Z,245.83
2022-11-17T16:48:12.517Z,268.17
2022-11-17T16:50:42.693Z,261.67
2022-11-17T16:53:10.531Z,261.00
2022-11-17T16:55:39.119Z,261.30
2022-11-17T16:58:08.113Z,256.20
2022-11-17T17:00:35.856Z,250.10
2022-11-17T17:03:03.910Z,259.03
2022-11-17T17:05:31.658Z,276.37
2022-11-17T17:08:00.609Z,280.30
2022-11-17T17:10:28.274Z,257.17
2022-11-17T17:12:55.884Z,270.80
2022-11-17T17:15:23.535Z,285.87
2022-11-17T17:17:51.203Z,279.35
2022-11-17T17:20:19.074Z,293.87
2022-11-17T17:22:46.747Z,293.80
2022-11-17T17:25:16.008Z,271.97
2022-11-17T17:27:43.796Z,283.13
2022-11-17T17:30:12.630Z,268.38
2022-11-17T17:32:40.300Z,290.30
2022-11-17T17:35:08.693Z,281.33
2022-11-17T17:37:36.309Z,276.20
2022-11-17T17:40:04.755Z,275.88
2022-11-17T17:42:33.755Z,294.05
2022-11-17T17:45:01.470Z,303.75
2022-11-17T17:47:29.092Z,295.02
2022-11-17T17:49:56.824Z,301.05
2022-11-17T17:52:24.455Z,281.52
2022-11-17T17:54:52.141Z,292.67
2022-11-17T17:57:19.780Z,300.27
2022-11-17T17:59:48.786Z,290.90
2022-11-17T18:02:16.409Z,291.40
2022-11-17T18:04:44.091Z,297.17
2022-11-17T18:07:11.808Z,307.37
2022-11-17T18:09:39.446Z,289.17
2022-11-17T18:12:07.142Z,306.10
2022-11-17T18:14:34.763Z,306.92
2022-11-17T18:17:03.854Z,312.65
2022-11-17T18:19:33.182Z,312.67
2022-11-17T18:22:01.380Z,313.45
2022-11-17T18:24:29.228Z,302.33
2022-11-17T18:26:56.871Z,291.52
2022-11-17T18:29:24.824Z,295.70
2022-11-17T18:31:52.443Z,309.03
2022-11-17T18:34:23.024Z,293.38
2022-11-17T18:36:52.070Z,297.05
2022-11-17T18:39:21.179Z,294.63
2022-11-17T18:41:48.955Z,307.23
2022-11-17T18:44:19.272Z,288.83
2022-11-17T18:46:47.088Z,299.17
2022-11-17T18:49:15.226Z,294.55
2022-11-17T18:51:44.492Z,289.90
2022-11-17T18:54:12.249Z,295.65
2022-11-17T18:56:39.942Z,307.50
2022-11-17T18:59:11.391Z,295.05
2022-11-17T19:01:43.893Z,286.13
2022-11-17T19:04:13.357Z,292.53
2022-11-17T19:06:41.168Z,319.65
2022-11-17T19:09:10.743Z,296.70
2022-11-17T19:11:38.457Z,322.03
2022-11-17T19:14:06.154Z,325.07
2022-11-17T19:16:41.057Z,296.63
2022-11-17T19:19:13.006Z,304.93
2022-11-17T19:21:41.100Z,287.65
2022-11-17T19:24:10.319Z,298.40
2022-11-17T19:26:38.144Z,304.87
2022-11-17T19:29:14.261Z,313.10
2022-11-17T19:31:43.589Z,295.17
2022-11-17T19:34:11.543Z,297.80
2022-11-17T19:36:39.428Z,306.03
2022-11-17T19:39:07.232Z,281.27
2022-11-17T19:41:38.252Z,298.03
2022-11-17T19:44:07.873Z,298.87
2022-11-17T19:46:36.518Z,293.97
2022-11-17T19:49:05.843Z,299.63
2022-11-17T19:51:36.324Z,295.25
2022-11-17T19:54:05.682Z,296.27
2022-11-17T19:56:33.658Z,300.55
2022-11-17T19:59:02.889Z,279.27
2022-11-17T20:01:30.739Z,277.43
2022-11-17T20:03:59.981Z,295.83
2022-11-17T20:06:29.749Z,276.37
2022-11-17T20:08:58.267Z,293.47
2022-11-17T20:11:27.989Z,298.30
2022-11-17T20:13:56.192Z,293.45
2022-11-17T20:16:27.562Z,294.17
2022-11-17T20:18:57.211Z,302.05
2022-11-17T20:21:25.524Z,274.27
2022-11-17T20:23:53.247Z,303.20
2022-11-17T20:26:26.140Z,291.87
2022-11-17T20:28:53.812Z,294.37
2022-11-17T20:31:24.215Z,291.07
2022-11-17T20:33:57.486Z,289.47
2022-11-17T20:36:25.547Z,290.52
2022-11-17T20:38:54.347Z,295.00
2022-11-17T20:41:23.251Z,293.57
2022-11-17T20:43:52.327Z,291.90
2022-11-17T20:46:20.722Z,280.43
2022-11-17T20:48:48.833Z,303.97
2022-11-17T20:51:19.953Z,294.88
2022-11-17T20:53:47.616Z,307.00
2022-11-17T20:56:16.954Z,284.35
2022-11-17T20:58:44.927Z,308.17
2022-11-17T21:01:14.680Z,315.08
2022-11-17T21:04:01.457Z,301.77
2022-11-17T21:06:50.705Z,300.70
2022-11-17T21:09:38.624Z,300.75
2022-11-17T21:12:27.123Z,291.75
2022-11-17T21:15:15.009Z,285.20
2022-11-17T21:18:20.534Z,309.08
2022-11-17T21:21:09.434Z,292.15
2022-11-17T21:23:58.738Z,302.17
2022-11-17T21:26:46.706Z,305.13
2022-11-17T21:29:34.589Z,323.80
2022-11-17T21:32:22.788Z,319.27
2022-11-17T21:35:10.958Z,325.88
2022-11-17T21:37:59.895Z,312.15
2022-11-17T21:40:49.129Z,310.15
2022-11-17T21:43:37.935Z,314.20
2022-11-17T21:46:28.380Z,306.38
2022-11-17T21:49:16.373Z,309.42
2022-11-17T21:52:04.528Z,309.85
2022-11-17T21:54:52.423Z,301.63
2022-11-17T21:57:41.666Z,295.67
2022-11-17T22:00:29.643Z,285.98
2022-11-17T22:03:17.542Z,302.13
2022-11-17T22:06:07.409Z,285.63
2022-11-17T22:08:56.834Z,288.63
2022-11-17T22:11:44.730Z,297.77
2022-11-17T22:14:33.981Z,285.88
2022-11-17T22:17:21.878Z,289.37
2022-11-17T22:20:10.865Z,309.07
2022-11-17T22:22:58.793Z,321.10
2022-11-17T22:25:53.785Z,291.43
2022-11-17T22:28:41.708Z,291.37
2022-11-17T22:31:31.123Z,288.40
2022-11-17T22:34:19.578Z,301.50
2022-11-17T22:37:07.488Z,299.03
2022-11-17T22:39:55.480Z,309.13
2022-11-17T22:42:43.372Z,284.25
2022-11-17T22:45:31.345Z,289.60
2022-11-17T22:48:20.613Z,300.83
2022-11-17T22:51:09.115Z,296.42
2022-11-17T22:53:57.032Z,277.30
2022-11-17T22:56:44.962Z,310.55
2022-11-17T22:59:33.193Z,293.27
2022-11-17T23:02:21.103Z,295.08
2022-11-17T23:05:10.467Z,299.27
2022-11-17T23:07:58.373Z,290.10
2022-11-17T23:10:46.300Z,292.43
2022-11-17T23:13:34.337Z,292.77
2022-11-17T23:16:22.366Z,293.60
2022-11-17T23:19:14.079Z,275.33
2022-11-17T23:22:03.416Z,310.70
2022-11-17T23:24:51.323Z,288.20
2022-11-17T23:27:39.217Z,288.02
2022-11-17T23:30:27.095Z,283.77
2022-11-17T23:33:15.053Z,293.77
2022-11-17T23:36:03.391Z,285.27
2022-11-17T23:38:53.325Z,272.37
2022-11-17T23:41:41.260Z,267.70
2022-11-17T23:44:29.211Z,306.73
2022-11-17T23:47:17.112Z,285.23
2022-11-17T23:50:05.844Z,272.43
2022-11-17T23:52:53.769Z,267.60
2022-11-17T23:55:43.102Z,270.43
2022-11-17T23:58:31.295Z,282.57
